createdAt,value
2022-09-23T00:01:23.983Z,10.33
2022-09-23T00:03:52.216Z,10.33
2022-09-23T00:06:21.435Z,10.36
2022-09-23T00:08:50.362Z,10.34
2022-09-23T00:11:20.612Z,10.36
2022-09-23T00:13:52.031Z,10.34
2022-09-23T00:16:22.010Z,10.36
2022-09-23T00:18:50.864Z,10.34
2022-09-23T00:21:19.827Z,10.35
2022-09-23T00:23:47.751Z,10.33
2022-09-23T00:26:19.068Z,10.37
2022-09-23T00:28:48.881Z,10.36
2022-09-23T00:31:18.914Z,10.38
2022-09-23T00:33:46.996Z,10.38
2022-09-23T00:36:16.279Z,10.39
2022-09-23T00:38:44.428Z,10.39
2022-09-23T00:41:14.537Z,10.37
2022-09-23T00:43:44.388Z,10.38
2022-09-23T00:46:20.389Z,10.39
2022-09-23T00:48:49.716Z,10.37
2022-09-23T00:51:21.570Z,10.36
2022-09-23T00:53:51.750Z,10.33
2022-09-23T00:56:23.730Z,10.25
2022-09-23T00:58:53.124Z,10.23
2022-09-23T01:01:23.223Z,10.19
2022-09-23T01:03:52.973Z,10.16
2022-09-23T01:06:21.809Z,10.17
2022-09-23T01:08:50.787Z,10.15
2022-09-23T01:11:30.776Z,10.15
2022-09-23T01:14:07.340Z,10.15
2022-09-23T01:16:41.415Z,10.07
2022-09-23T01:19:25.312Z,10.08
2022-09-23T01:22:00.089Z,10.04
2022-09-23T01:24:48.439Z,10.00
2022-09-23T01:27:42.024Z,9.87
2022-09-23T01:30:23.839Z,9.88
2022-09-23T01:33:04.671Z,9.87
2022-09-23T01:35:43.794Z,9.90
2022-09-23T01:38:18.037Z,9.89
2022-09-23T01:40:50.478Z,9.88
2022-09-23T01:43:24.414Z,9.84
2022-09-23T01:45:56.653Z,9.82
2022-09-23T01:48:30.762Z,9.77
2022-09-23T01:51:03.720Z,9.77
2022-09-23T01:53:38.883Z,9.75
2022-09-23T01:56:12.319Z,9.76
2022-09-23T01:58:44.277Z,9.78
2022-09-23T02:01:17.213Z,9.75
2022-09-23T02:03:50.161Z,9.69
2022-09-23T02:06:23.397Z,9.68
2022-09-23T02:08:56.869Z,9.67
2022-09-23T02:11:25.100Z,9.67
2022-09-23T02:13:57.627Z,9.64
2022-09-23T02:16:28.705Z,9.64
2022-09-23T02:19:02.449Z,9.58
2022-09-23T02:21:35.638Z,9.58
2022-09-23T02:24:09.956Z,9.57
2022-09-23T02:26:42.112Z,9.54
2022-09-23T02:29:17.433Z,9.50
2022-09-23T02:31:51.109Z,9.49
2022-09-23T02:34:25.407Z,9.46
2022-09-23T02:37:00.522Z,9.45
2022-09-23T02:39:34.658Z,9.42
2022-09-23T02:42:07.116Z,9.37
2022-09-23T02:44:35.162Z,9.38
2022-09-23T02:47:03.528Z,9.38
2022-09-23T02:49:33.696Z,9.32
2022-09-23T02:52:05.827Z,9.33
2022-09-23T02:54:35.462Z,9.29
2022-09-23T02:57:05.745Z,9.26
2022-09-23T02:59:33.965Z,9.26
2022-09-23T03:02:15.078Z,9.25
2022-09-23T03:04:50.453Z,9.20
2022-09-23T03:07:20.315Z,9.19
2022-09-23T03:09:54.806Z,9.18
2022-09-23T03:12:36.051Z,9.20
2022-09-23T03:15:13.698Z,9.21
2022-09-23T03:17:48.214Z,9.20
2022-09-23T03:20:23.825Z,9.16
2022-09-23T03:22:55.298Z,9.13
2022-09-23T03:25:25.142Z,9.13
2022-09-23T03:27:57.111Z,9.09
2022-09-23T03:30:24.999Z,9.09
2022-09-23T03:32:53.400Z,9.08
2022-09-23T03:35:23.292Z,9.08
2022-09-23T03:37:54.940Z,9.07
2022-09-23T03:40:26.647Z,9.06
2022-09-23T03:42:56.225Z,9.02
2022-09-23T03:45:29.398Z,9.05
2022-09-23T03:47:57.242Z,8.95
2022-09-23T03:50:26.702Z,8.96
2022-09-23T03:52:56.843Z,8.92
2022-09-23T03:55:28.195Z,8.93
2022-09-23T03:57:58.819Z,8.93
2022-09-23T04:00:30.757Z,8.89
2022-09-23T04:02:59.009Z,8.84
2022-09-23T04:05:28.635Z,8.86
2022-09-23T04:07:56.809Z,8.82
2022-09-23T04:10:24.613Z,8.78
2022-09-23T04:12:52.418Z,8.78
2022-09-23T04:15:20.197Z,8.80
2022-09-23T04:17:48.240Z,8.79
2022-09-23T04:20:16.210Z,8.73
2022-09-23T04:22:45.432Z,8.76
2022-09-23T04:25:13.486Z,8.74
2022-09-23T04:27:41.371Z,8.72
2022-09-23T04:30:10.386Z,8.76
2022-09-23T04:32:38.509Z,8.73
2022-09-23T04:35:09.371Z,8.73
2022-09-23T04:37:37.612Z,8.71
2022-09-23T04:40:08.545Z,8.71
2022-09-23T04:42:36.427Z,8.72
2022-09-23T04:45:05.657Z,8.76
2022-09-23T04:47:33.650Z,8.73
2022-09-23T04:50:01.476Z,8.71
2022-09-23T04:52:31.321Z,8.71
2022-09-23T04:54:59.135Z,8.79
2022-09-23T04:57:29.920Z,8.77
2022-09-23T04:59:58.064Z,8.76
2022-09-23T05:02:26.189Z,8.72
2022-09-23T05:04:54.111Z,8.70
2022-09-23T05:07:22.109Z,8.66
2022-09-23T05:09:50.043Z,8.70
2022-09-23T05:12:18.922Z,8.64
2022-09-23T05:14:48.551Z,8.61
2022-09-23T05:17:16.410Z,8.62
2022-09-23T05:19:44.241Z,8.63
2022-09-23T05:22:12.005Z,8.64
2022-09-23T05:24:39.888Z,8.64
2022-09-23T05:27:08.484Z,8.67
2022-09-23T05:29:36.533Z,8.67
2022-09-23T05:32:06.516Z,8.67
2022-09-23T05:34:34.361Z,8.64
2022-09-23T05:37:02.773Z,8.63
2022-09-23T05:39:30.729Z,8.63
2022-09-23T05:42:00.321Z,8.59
2022-09-23T05:44:28.375Z,8.60
2022-09-23T05:46:56.453Z,8.58
2022-09-23T05:49:42.511Z,8.60
2022-09-23T05:52:14.197Z,8.61
2022-09-23T05:54:42.084Z,8.63
2022-09-23T05:57:09.882Z,8.64
2022-09-23T05:59:38.193Z,8.65
2022-09-23T06:02:06.261Z,8.67
2022-09-23T06:04:35.901Z,8.68
2022-09-23T06:07:03.877Z,8.69
2022-09-23T06:09:36.379Z,8.71
2022-09-23T06:12:05.217Z,8.68
2022-09-23T06:14:33.376Z,8.72
2022-09-23T06:17:01.301Z,8.75
2022-09-23T06:19:29.172Z,8.77
2022-09-23T06:21:58.468Z,8.79
2022-09-23T06:24:31.068Z,8.83
2022-09-23T06:26:59.324Z,8.88
2022-09-23T06:29:27.103Z,8.95
2022-09-23T06:31:55.356Z,8.97
2022-09-23T06:34:23.581Z,9.04
2022-09-23T06:36:51.776Z,9.05
2022-09-23T06:39:21.062Z,9.09
2022-09-23T06:41:49.179Z,9.12
2022-09-23T06:44:17.069Z,9.19
2022-09-23T06:46:45.146Z,9.26
2022-09-23T06:49:13.613Z,9.33
2022-09-23T06:51:41.565Z,9.42
2022-09-23T06:54:09.809Z,9.51
2022-09-23T06:56:39.818Z,9.64
2022-09-23T06:59:08.432Z,9.81
2022-09-23T07:01:36.342Z,10.04
2022-09-23T07:04:04.451Z,10.24
2022-09-23T07:06:32.335Z,10.44
2022-09-23T07:09:01.101Z,10.69
2022-09-23T07:11:29.056Z,10.96
2022-09-23T07:13:58.509Z,11.22
2022-09-23T07:16:26.743Z,11.45
2022-09-23T07:18:55.020Z,11.66
2022-09-23T07:21:22.850Z,11.83
2022-09-23T07:23:51.995Z,11.99
2022-09-23T07:26:21.179Z,12.18
2022-09-23T07:28:49.343Z,12.38
2022-09-23T07:31:33.195Z,12.53
2022-09-23T07:34:04.745Z,12.71
2022-09-23T07:36:33.258Z,12.92
2022-09-23T07:39:03.250Z,13.11
2022-09-23T07:41:32.876Z,13.35
2022-09-23T07:44:01.255Z,13.57
2022-09-23T07:46:32.273Z,13.70
2022-09-23T07:49:00.398Z,13.86
2022-09-23T07:51:34.710Z,14.06
2022-09-23T07:54:05.372Z,14.27
2022-09-23T07:56:33.381Z,14.46
2022-09-23T07:59:02.903Z,14.59
2022-09-23T08:01:33.375Z,14.68
2022-09-23T08:04:03.994Z,14.65
2022-09-23T08:06:31.866Z,14.64
2022-09-23T08:09:00.541Z,14.56
2022-09-23T08:11:29.302Z,14.57
2022-09-23T08:13:57.318Z,14.51
2022-09-23T08:16:25.329Z,14.46
2022-09-23T08:18:54.707Z,14.42
2022-09-23T08:21:23.429Z,14.43
2022-09-23T08:23:51.820Z,14.39
2022-09-23T08:26:22.408Z,14.37
2022-09-23T08:28:53.949Z,14.37
2022-09-23T08:31:22.103Z,14.40
2022-09-23T08:33:54.507Z,14.41
2022-09-23T08:36:22.531Z,14.45
2022-09-23T08:38:50.718Z,14.52
2022-09-23T08:41:24.525Z,14.67
2022-09-23T08:43:56.071Z,14.77
2022-09-23T08:46:27.552Z,14.87
2022-09-23T08:48:57.279Z,15.00
2022-09-23T08:51:29.673Z,15.11
2022-09-23T08:53:58.221Z,15.24
2022-09-23T08:56:26.206Z,15.37
2022-09-23T08:59:03.090Z,15.54
2022-09-23T09:01:37.918Z,15.74
2022-09-23T09:04:19.158Z,15.80
2022-09-23T09:06:53.876Z,15.84
2022-09-23T09:09:25.225Z,15.89
2022-09-23T09:11:58.163Z,15.93
2022-09-23T09:14:28.291Z,15.99
2022-09-23T09:17:00.609Z,16.03
2022-09-23T09:19:57.090Z,16.11
2022-09-23T09:22:48.189Z,16.22
2022-09-23T09:25:34.781Z,16.32
2022-09-23T09:28:03.053Z,16.37
2022-09-23T09:30:32.436Z,16.43
2022-09-23T09:33:04.164Z,16.50
2022-09-23T09:35:38.110Z,16.55
2022-09-23T09:38:06.838Z,16.58
2022-09-23T09:40:35.636Z,16.55
2022-09-23T09:43:04.686Z,16.58
2022-09-23T09:45:57.564Z,16.57
2022-09-23T09:48:33.175Z,16.63
2022-09-23T09:51:19.422Z,16.72
2022-09-23T09:53:47.641Z,16.74
2022-09-23T09:56:16.759Z,16.80
2022-09-23T09:58:47.868Z,16.90
2022-09-23T10:01:23.341Z,16.83
2022-09-23T10:03:58.502Z,16.89
2022-09-23T10:06:31.906Z,17.10
2022-09-23T10:09:12.528Z,17.01
2022-09-23T10:11:42.278Z,17.14
2022-09-23T10:14:18.324Z,17.23
2022-09-23T10:16:49.078Z,17.34
2022-09-23T10:19:29.761Z,17.59
2022-09-23T10:22:01.627Z,17.66
2022-09-23T10:24:32.258Z,17.89
2022-09-23T10:27:03.378Z,18.10
2022-09-23T10:29:32.785Z,18.00
2022-09-23T10:32:21.496Z,17.96
2022-09-23T10:34:51.877Z,18.12
2022-09-23T10:37:26.865Z,18.24
2022-09-23T10:40:12.154Z,18.36
2022-09-23T10:43:11.327Z,18.49
2022-09-23T10:45:58.519Z,18.62
2022-09-23T10:48:35.895Z,18.48
2022-09-23T10:51:08.828Z,18.52
2022-09-23T10:53:49.485Z,18.51
2022-09-23T10:56:24.567Z,18.56
2022-09-23T10:59:47.701Z,18.71
2022-09-23T11:02:31.275Z,18.95
2022-09-23T11:05:21.441Z,19.04
2022-09-23T11:07:56.990Z,19.22
2022-09-23T11:10:54.451Z,19.38
2022-09-23T11:13:34.104Z,19.43
2022-09-23T11:16:09.982Z,19.50
2022-09-23T11:18:53.565Z,19.64
2022-09-23T11:21:31.014Z,19.68
2022-09-23T11:24:12.231Z,19.55
2022-09-23T11:26:53.671Z,19.71
2022-09-23T11:29:51.841Z,19.77
2022-09-23T11:32:32.030Z,19.91
2022-09-23T11:35:10.933Z,19.95
2022-09-23T11:37:43.978Z,19.99
2022-09-23T11:40:17.738Z,20.08
2022-09-23T11:42:53.775Z,20.15
2022-09-23T11:45:24.581Z,20.24
2022-09-23T11:47:55.053Z,20.17
2022-09-23T11:50:27.902Z,20.23
2022-09-23T11:52:59.978Z,20.27
2022-09-23T11:55:32.410Z,20.25
2022-09-23T11:58:16.863Z,20.28
2022-09-23T12:01:01.058Z,20.19
2022-09-23T12:03:44.050Z,20.30
2022-09-23T12:06:16.357Z,20.48
2022-09-23T12:08:44.468Z,20.62
2022-09-23T12:11:23.677Z,20.63
2022-09-23T12:13:58.093Z,20.65
2022-09-23T12:17:04.434Z,20.59
2022-09-23T12:19:48.730Z,20.42
2022-09-23T12:22:31.873Z,20.40
2022-09-23T12:25:06.774Z,20.35
2022-09-23T12:27:37.816Z,20.40
2022-09-23T12:30:14.812Z,20.27
2022-09-23T12:32:43.159Z,20.25
2022-09-23T12:35:22.658Z,20.18
2022-09-23T12:37:50.881Z,20.17
2022-09-23T12:40:22.675Z,20.17
2022-09-23T12:42:50.824Z,20.11
2022-09-23T12:45:35.207Z,20.19
2022-09-23T12:48:04.528Z,20.12
2022-09-23T12:50:48.617Z,20.28
2022-09-23T12:53:54.175Z,20.22
2022-09-23T12:56:24.597Z,20.22
2022-09-23T12:59:20.676Z,20.30
2022-09-23T13:01:50.059Z,20.34
2022-09-23T13:04:51.621Z,20.44
2022-09-23T13:07:20.694Z,20.54
2022-09-23T13:09:50.836Z,20.62
2022-09-23T13:12:22.313Z,20.72
2022-09-23T13:14:54.107Z,20.70
2022-09-23T13:17:33.281Z,20.58
2022-09-23T13:20:03.750Z,20.53
2022-09-23T13:23:06.028Z,20.50
2022-09-23T13:25:37.290Z,20.41
2022-09-23T13:28:05.364Z,20.26
2022-09-23T13:30:33.745Z,20.42
2022-09-23T13:33:07.761Z,20.53
2022-09-23T13:35:37.525Z,20.47
2022-09-23T13:38:12.566Z,20.54
2022-09-23T13:40:42.554Z,20.48
2022-09-23T13:43:15.773Z,20.41
2022-09-23T13:45:44.299Z,20.41
2022-09-23T13:48:15.840Z,20.25
2022-09-23T13:50:48.574Z,20.34
2022-09-23T13:53:21.886Z,20.19
2022-09-23T13:56:01.514Z,20.01
2022-09-23T13:58:30.768Z,19.94
2022-09-23T14:00:58.869Z,20.01
2022-09-23T14:03:35.347Z,20.13
2022-09-23T14:06:07.148Z,20.24
2022-09-23T14:08:38.241Z,20.24
2022-09-23T14:11:06.849Z,20.27
2022-09-23T14:13:41.785Z,20.13
2022-09-23T14:16:11.693Z,20.04
2022-09-23T14:18:42.813Z,19.87
2022-09-23T14:21:28.933Z,19.91
2022-09-23T14:23:57.505Z,19.74
2022-09-23T14:26:25.787Z,19.78
2022-09-23T14:28:54.131Z,19.72
2022-09-23T14:31:22.098Z,19.75
2022-09-23T14:33:51.983Z,19.60
2022-09-23T14:36:37.514Z,19.57
2022-09-23T14:39:07.345Z,19.56
2022-09-23T14:41:38.613Z,19.58
2022-09-23T14:44:07.625Z,19.72
2022-09-23T14:46:36.758Z,19.82
2022-09-23T14:49:08.307Z,19.93
2022-09-23T14:51:42.363Z,19.95
2022-09-23T14:54:33.479Z,20.02
2022-09-23T14:57:01.784Z,20.05
2022-09-23T14:59:34.269Z,19.99
2022-09-23T15:02:02.090Z,19.89
2022-09-23T15:04:32.781Z,19.86
2022-09-23T15:07:03.950Z,19.82
2022-09-23T15:09:34.638Z,19.81
2022-09-23T15:12:04.108Z,19.66
2022-09-23T15:14:39.204Z,19.59
2022-09-23T15:17:16.115Z,19.58
2022-09-23T15:19:46.564Z,19.44
2022-09-23T15:22:16.656Z,19.41
2022-09-23T15:24:46.202Z,19.43
2022-09-23T15:27:30.869Z,19.36
2022-09-23T15:30:18.758Z,19.27
2022-09-23T15:32:47.445Z,19.37
2022-09-23T15:35:18.859Z,19.19
2022-09-23T15:37:48.174Z,19.19
2022-09-23T15:40:20.971Z,19.15
2022-09-23T15:42:52.549Z,19.06
2022-09-23T15:45:22.040Z,19.00
2022-09-23T15:47:52.292Z,18.96
2022-09-23T15:50:21.631Z,18.84
2022-09-23T15:52:49.499Z,18.78
2022-09-23T15:55:18.667Z,18.69
2022-09-23T15:57:46.504Z,18.64
2022-09-23T16:00:16.035Z,18.63
2022-09-23T16:02:45.545Z,18.61
2022-09-23T16:05:18.745Z,18.59
2022-09-23T16:07:48.461Z,18.68
2022-09-23T16:10:16.973Z,18.54
2022-09-23T16:12:44.953Z,18.52
2022-09-23T16:15:15.391Z,18.45
2022-09-23T16:17:44.384Z,18.46
2022-09-23T16:20:12.895Z,18.37
2022-09-23T16:22:42.758Z,18.27
2022-09-23T16:25:14.242Z,18.19
2022-09-23T16:27:42.321Z,18.10
2022-09-23T16:30:12.021Z,17.99
2022-09-23T16:32:40.237Z,17.93
2022-09-23T16:35:09.378Z,17.81
2022-09-23T16:37:37.221Z,17.76
2022-09-23T16:40:07.515Z,17.63
2022-09-23T16:42:38.328Z,17.56
2022-09-23T16:45:07.101Z,17.51
2022-09-23T16:47:35.275Z,17.45
2022-09-23T16:50:03.206Z,17.38
2022-09-23T16:52:31.092Z,17.37
2022-09-23T16:55:00.290Z,17.27
2022-09-23T16:57:30.002Z,17.23
2022-09-23T17:00:16.677Z,17.17
2022-09-23T17:03:02.143Z,17.10
2022-09-23T17:05:30.003Z,17.03
2022-09-23T17:07:57.835Z,17.01
2022-09-23T17:10:25.729Z,16.91
2022-09-23T17:12:54.530Z,16.83
2022-09-23T17:15:23.985Z,16.78
2022-09-23T17:17:51.805Z,16.73
2022-09-23T17:20:20.141Z,16.66
2022-09-23T17:22:48.418Z,16.63
2022-09-23T17:25:16.742Z,16.57
2022-09-23T17:27:44.552Z,16.54
2022-09-23T17:30:14.581Z,16.52
2022-09-23T17:32:44.240Z,16.49
2022-09-23T17:35:12.496Z,16.44
2022-09-23T17:37:40.381Z,16.38
2022-09-23T17:40:09.155Z,16.32
2022-09-23T17:42:41.271Z,16.26
2022-09-23T17:45:10.401Z,16.16
2022-09-23T17:47:41.711Z,16.14
2022-09-23T17:50:11.489Z,16.09
2022-09-23T17:52:39.466Z,16.08
2022-09-23T17:55:08.766Z,16.06
2022-09-23T17:57:36.598Z,16.05
2022-09-23T18:00:05.190Z,16.00
2022-09-23T18:02:33.032Z,15.95
2022-09-23T18:05:00.893Z,15.92
2022-09-23T18:07:30.116Z,15.81
2022-09-23T18:09:57.996Z,15.77
2022-09-23T18:12:26.155Z,15.75
2022-09-23T18:14:53.977Z,15.75
2022-09-23T18:17:22.081Z,15.71
2022-09-23T18:19:50.546Z,15.68
2022-09-23T18:22:20.867Z,15.61
2022-09-23T18:24:50.110Z,15.56
2022-09-23T18:27:17.873Z,15.49
2022-09-23T18:29:45.853Z,15.44
2022-09-23T18:32:14.531Z,15.43
2022-09-23T18:34:42.726Z,15.31
2022-09-23T18:37:15.638Z,15.29
2022-09-23T18:39:44.620Z,15.24
2022-09-23T18:42:14.397Z,15.20
2022-09-23T18:44:42.462Z,15.17
2022-09-23T18:47:31.390Z,15.08
2022-09-23T18:50:16.757Z,15.04
2022-09-23T18:52:44.592Z,14.94
2022-09-23T18:55:12.694Z,14.88
2022-09-23T18:57:42.091Z,14.81
2022-09-23T19:00:11.337Z,14.80
2022-09-23T19:02:39.128Z,14.78
2022-09-23T19:05:07.941Z,14.82
2022-09-23T19:07:36.038Z,14.84
2022-09-23T19:10:04.097Z,14.82
2022-09-23T19:12:32.345Z,14.83
2022-09-23T19:15:01.592Z,14.85
2022-09-23T19:17:30.183Z,14.87
2022-09-23T19:19:58.578Z,14.88
2022-09-23T19:22:26.650Z,14.85
2022-09-23T19:24:54.540Z,14.81
2022-09-23T19:27:23.488Z,14.76
2022-09-23T19:29:51.319Z,14.75
2022-09-23T19:32:21.256Z,14.73
2022-09-23T19:34:49.681Z,14.70
2022-09-23T19:37:17.745Z,14.69
2022-09-23T19:39:47.575Z,14.68
2022-09-23T19:42:15.438Z,14.67
2022-09-23T19:44:44.649Z,14.62
2022-09-23T19:47:15.628Z,14.63
2022-09-23T19:49:45.022Z,14.56
2022-09-23T19:52:12.965Z,14.50
2022-09-23T19:54:40.903Z,14.49
2022-09-23T19:57:11.660Z,14.45
2022-09-23T19:59:40.307Z,14.46
2022-09-23T20:02:10.327Z,14.50
2022-09-23T20:04:38.194Z,14.51
2022-09-23T20:07:08.967Z,14.50
2022-09-23T20:09:36.802Z,14.46
2022-09-23T20:12:04.965Z,14.42
2022-09-23T20:14:32.751Z,14.35
2022-09-23T20:17:01.846Z,14.35
2022-09-23T20:19:29.718Z,14.33
2022-09-23T20:22:23.387Z,14.24
2022-09-23T20:24:52.904Z,14.22
2022-09-23T20:27:21.006Z,14.20
2022-09-23T20:29:50.176Z,14.21
2022-09-23T20:32:18.209Z,14.22
2022-09-23T20:34:49.097Z,14.22
2022-09-23T20:37:18.367Z,14.22
2022-09-23T20:39:47.485Z,14.12
2022-09-23T20:42:18.624Z,14.15
2022-09-23T20:44:48.343Z,14.07
2022-09-23T20:47:18.853Z,14.05
2022-09-23T20:49:49.022Z,14.02
2022-09-23T20:52:21.501Z,13.98
2022-09-23T20:54:52.207Z,13.98
2022-09-23T20:57:22.335Z,13.97
2022-09-23T20:59:50.520Z,13.96
2022-09-23T21:02:19.324Z,13.92
2022-09-23T21:04:47.938Z,13.87
2022-09-23T21:07:17.535Z,13.82
2022-09-23T21:09:46.069Z,13.81
2022-09-23T21:12:14.956Z,13.81
2022-09-23T21:14:44.826Z,13.82
2022-09-23T21:17:13.285Z,13.85
2022-09-23T21:19:41.916Z,13.85
2022-09-23T21:22:10.955Z,13.84
2022-09-23T21:25:25.163Z,13.82
2022-09-23T21:27:27.152Z,13.78
2022-09-23T21:29:56.649Z,13.75
2022-09-23T21:32:24.780Z,13.75
2022-09-23T21:34:52.632Z,13.71
2022-09-23T21:37:21.622Z,13.69
2022-09-23T21:40:09.856Z,13.70
2022-09-23T21:42:37.785Z,13.68
2022-09-23T21:45:09.124Z,13.70
2022-09-23T21:47:36.916Z,13.67
2022-09-23T21:50:05.386Z,13.63
2022-09-23T21:52:33.328Z,13.62
2022-09-23T21:55:01.500Z,13.65
2022-09-23T21:57:31.271Z,13.54
2022-09-23T21:59:59.097Z,13.51
2022-09-23T22:02:28.853Z,13.45
2022-09-23T22:04:56.787Z,13.41
2022-09-23T22:07:24.910Z,13.42
2022-09-23T22:09:52.722Z,13.37
2022-09-23T22:12:20.789Z,13.36
2022-09-23T22:14:49.168Z,13.36
2022-09-23T22:17:16.980Z,13.36
2022-09-23T22:19:47.538Z,13.36
2022-09-23T22:22:17.898Z,13.37
2022-09-23T22:24:46.944Z,13.33
2022-09-23T22:27:17.551Z,13.32
2022-09-23T22:30:03.521Z,13.33
2022-09-23T22:32:46.095Z,13.29
2022-09-23T22:35:17.818Z,13.21
2022-09-23T22:37:47.275Z,13.23
2022-09-23T22:40:16.615Z,13.24
2022-09-23T22:42:44.921Z,13.24
2022-09-23T22:45:13.486Z,13.28
2022-09-23T22:47:43.642Z,13.29
2022-09-23T22:50:13.939Z,13.29
2022-09-23T22:52:43.784Z,13.30
2022-09-23T22:55:12.093Z,13.26
2022-09-23T22:57:40.175Z,13.18
2022-09-23T23:00:12.173Z,13.13
2022-09-23T23:02:40.441Z,13.06
2022-09-23T23:05:09.005Z,13.03
2022-09-23T23:07:37.369Z,13.02
2022-09-23T23:10:10.231Z,13.03
2022-09-23T23:12:40.148Z,13.00
2022-09-23T23:15:12.370Z,12.99
2022-09-23T23:17:41.419Z,12.98
2022-09-23T23:20:10.017Z,13.01
2022-09-23T23:22:38.049Z,13.02
2022-09-23T23:25:08.135Z,13.04
2022-09-23T23:27:36.198Z,13.06
2022-09-23T23:30:04.523Z,13.07
2022-09-23T23:32:32.459Z,13.06
2022-09-23T23:35:00.302Z,13.03
2022-09-23T23:37:29.665Z,13.04
2022-09-23T23:39:57.516Z,13.01
2022-09-23T23:42:27.158Z,13.00
2022-09-23T23:44:55.294Z,13.01
2022-09-23T23:47:23.368Z,12.99
2022-09-23T23:49:51.239Z,12.99
2022-09-23T23:52:19.191Z,12.98
2022-09-23T23:54:47.272Z,12.93
2022-09-23T23:57:15.222Z,12.89
2022-09-23T23:59:44.707Z,12.89
